createdAt,value
2022-10-03T00:06:12.692Z,60.38
2022-10-03T00:16:19.431Z,60.19
2022-10-03T00:26:28.460Z,60.64
2022-10-03T00:36:38.104Z,60.80
2022-10-03T00:46:59.894Z,59.85
2022-10-03T00:57:20.693Z,60.22
2022-10-03T01:07:48.769Z,60.13
2022-10-03T01:18:05.382Z,61.54
2022-10-03T01:28:59.587Z,61.84
2022-10-03T01:39:08.452Z,60.56
2022-10-03T01:49:19.115Z,60.17
2022-10-03T01:59:26.596Z,59.94
2022-10-03T02:09:37.071Z,60.71
2022-10-03T02:19:48.404Z,60.24
2022-10-03T02:30:12.788Z,59.83
2022-10-03T02:40:49.830Z,59.49
2022-10-03T02:51:15.423Z,60.06
2022-10-03T03:01:44.497Z,60.42
2022-10-03T03:12:17.594Z,60.38
2022-10-03T03:22:41.352Z,60.44
2022-10-03T03:32:54.376Z,60.33
2022-10-03T03:43:11.352Z,60.09
2022-10-03T03:53:41.356Z,60.87
2022-10-03T04:03:51.828Z,61.58
2022-10-03T04:14:25.875Z,61.29
2022-10-03T04:24:43.900Z,60.44
2022-10-03T04:35:03.187Z,60.30
2022-10-03T04:45:17.415Z,61.09
2022-10-03T04:55:29.339Z,61.27
2022-10-03T05:05:49.682Z,60.49
2022-10-03T05:15:57.846Z,61.03
2022-10-03T05:26:39.171Z,60.99
2022-10-03T05:36:36.884Z,60.17
2022-10-03T05:46:57.496Z,59.97
2022-10-03T05:57:35.408Z,58.36
2022-10-03T06:07:47.986Z,58.02
2022-10-03T06:17:58.609Z,56.14
2022-10-03T06:28:38.351Z,55.46
2022-10-03T06:39:18.431Z,55.17
2022-10-03T06:49:31.420Z,55.91
2022-10-03T06:59:55.316Z,54.88
2022-10-03T07:10:14.171Z,51.40
2022-10-03T07:20:53.599Z,51.58
2022-10-03T07:31:08.229Z,50.36
2022-10-03T07:41:49.614Z,50.06
2022-10-03T07:52:05.196Z,48.93
2022-10-03T08:02:23.504Z,49.88
2022-10-03T08:12:56.465Z,51.06
2022-10-03T08:23:12.470Z,48.99
2022-10-03T08:33:38.320Z,48.79
2022-10-03T08:44:11.873Z,47.59
2022-10-03T08:54:55.312Z,47.27
2022-10-03T09:05:29.206Z,47.73
2022-10-03T09:16:20.864Z,45.91
2022-10-03T09:26:56.965Z,44.99
2022-10-03T09:37:31.336Z,46.67
2022-10-03T09:48:29.193Z,47.03
2022-10-03T09:58:57.068Z,47.17
2022-10-03T10:09:32.906Z,46.59
2022-10-03T10:19:44.712Z,44.65
2022-10-03T10:30:05.885Z,44.32
2022-10-03T10:40:59.873Z,45.68
2022-10-03T10:51:40.028Z,45.92
2022-10-03T11:12:50.259Z,45.92
2022-10-03T11:23:21.507Z,45.92
2022-10-03T11:33:48.859Z,48.28
2022-10-03T11:44:15.728Z,49.30
2022-10-03T11:54:31.569Z,48.19
2022-10-03T12:04:50.200Z,53.56
2022-10-03T12:14:53.685Z,53.47
2022-10-03T12:25:03.847Z,51.49
2022-10-03T12:35:20.382Z,50.26
2022-10-03T12:45:30.914Z,48.10
2022-10-03T12:55:35.054Z,47.19
2022-10-03T13:05:55.725Z,47.50
2022-10-03T13:16:21.162Z,47.06
2022-10-03T13:26:33.748Z,45.06
2022-10-03T13:36:40.381Z,45.14
2022-10-03T13:46:53.166Z,46.52
2022-10-03T13:56:59.603Z,45.94
2022-10-03T14:07:10.961Z,44.62
2022-10-03T14:17:18.317Z,43.00
2022-10-03T14:27:37.763Z,43.69
2022-10-03T14:37:45.719Z,45.02
2022-10-03T14:47:52.157Z,46.06
2022-10-03T14:58:10.282Z,45.63
2022-10-03T15:08:17.389Z,45.17
2022-10-03T15:18:23.833Z,45.55
2022-10-03T15:28:30.435Z,45.74
2022-10-03T15:38:36.249Z,46.90
2022-10-03T15:48:47.226Z,47.49
2022-10-03T15:58:52.860Z,49.21
2022-10-03T16:09:03.932Z,49.16
2022-10-03T16:19:26.493Z,49.18
2022-10-03T16:29:32.600Z,48.57
2022-10-03T16:39:37.659Z,48.71
2022-10-03T16:50:02.521Z,49.47
2022-10-03T17:00:08.292Z,49.21
2022-10-03T17:10:31.142Z,49.12
2022-10-03T17:20:42.068Z,50.52
2022-10-03T17:30:49.319Z,50.60
2022-10-03T17:41:01.764Z,50.48
2022-10-03T17:51:41.049Z,50.26
2022-10-03T18:01:46.586Z,50.23
2022-10-03T18:11:51.826Z,50.19
2022-10-03T18:22:02.276Z,50.29
2022-10-03T18:32:14.190Z,51.09
2022-10-03T18:42:18.648Z,51.33
2022-10-03T18:52:25.525Z,50.99
2022-10-03T19:02:34.684Z,51.62
2022-10-03T19:12:41.855Z,51.63
2022-10-03T19:22:57.233Z,52.35
2022-10-03T19:33:04.585Z,52.75
2022-10-03T19:43:36.065Z,53.29
2022-10-03T19:53:44.717Z,53.99
2022-10-03T20:03:52.618Z,53.56
2022-10-03T20:13:58.350Z,53.43
2022-10-03T20:24:02.701Z,51.83
2022-10-03T20:34:13.029Z,51.26
2022-10-03T20:44:19.572Z,51.57
2022-10-03T20:54:26.105Z,51.38
2022-10-03T21:04:32.542Z,51.32
2022-10-03T21:14:37.029Z,51.41
2022-10-03T21:24:45.580Z,52.00
2022-10-03T21:34:55.131Z,52.08
2022-10-03T21:45:10.787Z,51.61
2022-10-03T21:55:52.094Z,52.58
2022-10-03T22:06:01.864Z,52.11
2022-10-03T22:16:10.338Z,52.89
2022-10-03T22:26:18.685Z,52.15
2022-10-03T22:36:23.481Z,52.06
2022-10-03T22:46:28.885Z,52.42
2022-10-03T22:56:37.161Z,52.25
2022-10-03T23:06:58.686Z,51.92
2022-10-03T23:17:13.811Z,51.96
2022-10-03T23:27:40.853Z,52.37
2022-10-03T23:37:46.826Z,52.12
2022-10-03T23:47:55.548Z,52.13
2022-10-03T23:58:00.485Z,52.75
